createdAt,value
2019-02-09T00:00:30.819Z,991.27
2019-02-09T00:05:31.880Z,991.21
2019-02-09T00:10:31.041Z,991.08
2019-02-09T00:15:30.198Z,991.26
2019-02-09T00:20:29.010Z,991.10
2019-02-09T00:25:28.867Z,991.04
2019-02-09T00:30:28.234Z,991.03
2019-02-09T00:35:28.845Z,991.26
2019-02-09T00:40:27.872Z,991.20
2019-02-09T00:45:27.874Z,991.11
2019-02-09T00:50:26.862Z,991.25
2019-02-09T00:55:26.035Z,991.00
2019-02-09T01:00:26.866Z,990.76
2019-02-09T01:05:26.113Z,990.58
2019-02-09T01:10:26.846Z,990.55
2019-02-09T01:15:26.912Z,990.65
2019-02-09T01:20:26.848Z,990.63
2019-02-09T01:25:25.922Z,990.65
2019-02-09T01:30:24.884Z,990.54
2019-02-09T01:35:24.056Z,990.59
2019-02-09T01:40:23.859Z,990.30
2019-02-09T01:45:23.272Z,990.22
2019-02-09T01:50:22.868Z,990.35
2019-02-09T01:55:21.966Z,990.51
2019-02-09T02:00:20.866Z,990.38
2019-02-09T02:05:20.874Z,990.27
2019-02-09T02:10:19.876Z,990.30
2019-02-09T02:15:19.889Z,990.19
2019-02-09T02:20:18.954Z,990.27
2019-02-09T02:25:18.893Z,990.19
2019-02-09T02:30:22.380Z,989.96
2019-02-09T02:35:17.947Z,989.96
2019-02-09T02:40:17.859Z,990.06
2019-02-09T02:45:17.201Z,990.04
2019-02-09T02:50:16.123Z,990.01
2019-02-09T02:55:15.889Z,989.98
2019-02-09T03:00:14.931Z,989.88
2019-02-09T03:05:14.859Z,989.70
2019-02-09T03:10:14.891Z,989.77
2019-02-09T03:15:13.873Z,989.96
2019-02-09T03:20:13.115Z,990.04
2019-02-09T03:25:12.888Z,990.20
2019-02-09T03:30:11.904Z,990.23
2019-02-09T03:35:11.992Z,990.25
2019-02-09T03:40:10.879Z,990.25
2019-02-09T03:45:09.898Z,990.52
2019-02-09T03:50:09.242Z,990.41
2019-02-09T03:55:07.907Z,990.52
2019-02-09T04:00:07.910Z,990.47
2019-02-09T04:05:07.230Z,990.63
2019-02-09T04:10:06.062Z,990.45
2019-02-09T04:15:05.880Z,990.40
2019-02-09T04:20:06.013Z,990.59
2019-02-09T04:25:05.939Z,990.77
2019-02-09T04:30:05.974Z,990.67
2019-02-09T04:35:06.897Z,990.72
2019-02-09T04:40:06.025Z,990.72
2019-02-09T04:45:05.091Z,990.83
2019-02-09T04:50:04.080Z,990.83
2019-02-09T04:55:04.564Z,990.86
2019-02-09T05:00:03.161Z,990.93
2019-02-09T05:05:02.870Z,991.09
2019-02-09T05:10:02.869Z,991.15
2019-02-09T05:15:02.751Z,991.15
2019-02-09T05:20:03.097Z,991.36
2019-02-09T05:25:03.960Z,991.20
2019-02-09T05:30:03.923Z,991.20
2019-02-09T05:35:03.986Z,991.33
2019-02-09T05:40:03.158Z,991.25
2019-02-09T05:45:02.122Z,991.47
2019-02-09T05:50:01.892Z,991.44
2019-02-09T05:55:01.312Z,991.55
2019-02-09T06:00:02.128Z,991.81
2019-02-09T06:05:01.955Z,991.84
2019-02-09T06:10:01.920Z,991.89
2019-02-09T06:15:02.150Z,991.89
2019-02-09T06:20:02.901Z,991.92
2019-02-09T06:25:03.297Z,992.24
2019-02-09T06:30:03.149Z,992.08
2019-02-09T06:35:02.921Z,992.16
2019-02-09T06:40:02.912Z,992.13
2019-02-09T06:45:03.933Z,992.14
2019-02-09T06:50:03.892Z,992.34
2019-02-09T06:55:02.912Z,992.45
2019-02-09T07:00:02.938Z,992.58
2019-02-09T07:05:01.901Z,992.85
2019-02-09T07:10:02.927Z,992.79
2019-02-09T07:15:04.103Z,992.63
2019-02-09T07:20:03.153Z,992.65
2019-02-09T07:25:02.317Z,992.84
2019-02-09T07:30:01.971Z,992.97
2019-02-09T07:35:02.972Z,993.32
2019-02-09T07:40:03.107Z,993.39
2019-02-09T07:45:02.137Z,993.45
2019-02-09T07:50:01.944Z,993.47
2019-02-09T07:55:01.903Z,993.44
2019-02-09T08:00:01.397Z,993.36
2019-02-09T08:05:02.158Z,993.54
2019-02-09T08:10:03.051Z,993.77
2019-02-09T08:15:03.309Z,994.01
2019-02-09T08:20:02.904Z,993.89
2019-02-09T08:25:01.926Z,993.89
2019-02-09T08:30:01.142Z,993.97
2019-02-09T08:34:59.987Z,994.15
2019-02-09T08:40:00.207Z,994.18
2019-02-09T08:45:00.929Z,994.16
2019-02-09T08:50:02.175Z,994.08
2019-02-09T08:55:01.941Z,994.08
2019-02-09T09:00:02.143Z,994.09
2019-02-09T09:05:09.421Z,994.11
2019-02-09T09:10:01.999Z,994.19
2019-02-09T09:15:01.979Z,994.07
2019-02-09T09:20:02.087Z,994.23
2019-02-09T09:25:00.960Z,994.18
2019-02-09T09:30:00.404Z,994.03
2019-02-09T09:34:59.230Z,994.14
2019-02-09T09:39:59.014Z,994.42
2019-02-09T09:44:58.971Z,994.34
2019-02-09T09:49:57.958Z,994.39
2019-02-09T09:54:58.263Z,994.34
2019-02-09T09:59:58.275Z,994.26
2019-02-09T10:04:57.963Z,994.32
2019-02-09T10:09:57.027Z,994.42
2019-02-09T10:14:57.259Z,994.60
2019-02-09T10:19:57.007Z,994.58
2019-02-09T10:24:56.006Z,994.57
2019-02-09T10:29:56.156Z,994.59
2019-02-09T10:34:57.191Z,994.58
2019-02-09T10:39:56.987Z,994.41
2019-02-09T10:44:56.163Z,994.68
2019-02-09T10:49:56.046Z,994.65
2019-02-09T10:54:56.001Z,994.91
2019-02-09T10:59:56.000Z,994.78
2019-02-09T11:04:56.152Z,994.92
2019-02-09T11:09:57.035Z,994.71
2019-02-09T11:14:57.014Z,994.81
2019-02-09T11:19:56.420Z,994.91
2019-02-09T11:24:57.002Z,994.74
2019-02-09T11:29:56.026Z,994.61
2019-02-09T11:34:56.081Z,994.87
2019-02-09T11:39:56.027Z,994.81
2019-02-09T11:44:56.291Z,994.86
2019-02-09T11:49:55.057Z,994.91
2019-02-09T11:54:55.010Z,994.83
2019-02-09T11:59:55.022Z,994.73
2019-02-09T12:04:56.044Z,994.68
2019-02-09T12:09:55.349Z,994.67
2019-02-09T12:14:55.008Z,994.73
2019-02-09T12:19:55.022Z,994.81
2019-02-09T12:24:55.059Z,994.86
2019-02-09T12:29:54.054Z,994.81
2019-02-09T12:34:54.005Z,994.91
2019-02-09T12:39:53.066Z,994.91
2019-02-09T12:44:53.019Z,994.80
2019-02-09T12:49:52.617Z,994.88
2019-02-09T12:54:53.018Z,994.70
2019-02-09T12:59:53.002Z,994.93
2019-02-09T13:04:53.217Z,994.93
2019-02-09T13:09:53.195Z,994.96
2019-02-09T13:14:53.292Z,995.12
2019-02-09T13:19:53.006Z,994.98
2019-02-09T13:24:53.020Z,995.08
2019-02-09T13:29:54.039Z,995.05
2019-02-09T13:34:53.037Z,995.00
2019-02-09T13:39:53.249Z,994.98
2019-02-09T13:44:52.057Z,995.10
2019-02-09T13:49:51.089Z,995.13
2019-02-09T13:54:50.294Z,994.97
2019-02-09T13:59:51.031Z,995.00
2019-02-09T14:04:51.017Z,995.24
2019-02-09T14:09:51.024Z,995.05
2019-02-09T14:14:50.074Z,995.32
2019-02-09T14:19:49.468Z,995.27
2019-02-09T14:24:50.083Z,995.39
2019-02-09T14:29:49.021Z,995.49
2019-02-09T14:34:48.092Z,995.41
2019-02-09T14:39:47.190Z,995.90
2019-02-09T14:44:46.055Z,996.23
2019-02-09T14:49:46.054Z,996.66
2019-02-09T14:54:46.043Z,996.06
2019-02-09T14:59:46.073Z,996.04
2019-02-09T15:04:46.023Z,996.01
2019-02-09T15:09:46.056Z,996.11
2019-02-09T15:14:45.035Z,996.00
2019-02-09T15:19:46.049Z,996.22
2019-02-09T15:24:45.064Z,996.18
2019-02-09T15:29:45.063Z,996.16
2019-02-09T15:34:45.038Z,996.27
2019-02-09T15:39:44.140Z,996.27
2019-02-09T15:44:43.050Z,996.30
2019-02-09T15:49:43.052Z,996.25
2019-02-09T15:54:42.100Z,996.31
2019-02-09T15:59:42.091Z,996.47
2019-02-09T16:04:42.101Z,996.63
2019-02-09T16:09:42.029Z,996.55
2019-02-09T16:14:41.143Z,996.66
2019-02-09T16:19:41.103Z,996.60
2019-02-09T16:24:42.146Z,996.71
2019-02-09T16:29:41.541Z,996.72
2019-02-09T16:34:41.051Z,996.69
2019-02-09T16:39:41.158Z,996.69
2019-02-09T16:44:40.099Z,996.88
2019-02-09T16:49:40.080Z,996.86
2019-02-09T16:54:39.183Z,996.78
2019-02-09T16:59:38.081Z,996.79
2019-02-09T17:04:37.135Z,996.90
2019-02-09T17:09:36.293Z,996.85
2019-02-09T17:14:37.049Z,996.99
2019-02-09T17:19:36.520Z,997.04
2019-02-09T17:24:37.077Z,997.33
2019-02-09T17:29:37.153Z,997.25
2019-02-09T17:34:40.835Z,997.30
2019-02-09T17:39:36.152Z,997.29
2019-02-09T17:44:37.043Z,997.40
2019-02-09T17:49:36.494Z,997.37
2019-02-09T17:54:35.557Z,997.46
2019-02-09T17:59:36.057Z,997.45
2019-02-09T18:04:36.090Z,997.59
2019-02-09T18:09:36.127Z,997.56
2019-02-09T18:14:36.043Z,997.83
2019-02-09T18:19:35.099Z,997.76
2019-02-09T18:24:35.092Z,997.87
2019-02-09T18:29:36.102Z,997.92
2019-02-09T18:34:36.093Z,997.98
2019-02-09T18:39:35.224Z,998.00
2019-02-09T18:44:36.064Z,997.95
2019-02-09T18:49:35.898Z,997.97
2019-02-09T18:54:36.094Z,998.00
2019-02-09T18:59:35.454Z,997.92
2019-02-09T19:04:34.501Z,997.92
2019-02-09T19:09:33.059Z,998.05
2019-02-09T19:14:33.067Z,997.92
2019-02-09T19:19:32.265Z,998.10
2019-02-09T19:24:31.102Z,998.03
2019-02-09T19:29:31.084Z,997.97
2019-02-09T19:34:31.330Z,998.13
2019-02-09T19:39:31.143Z,998.15
2019-02-09T19:44:32.412Z,998.14
2019-02-09T19:49:31.098Z,998.11
2019-02-09T19:54:31.138Z,998.08
2019-02-09T19:59:31.148Z,998.16
2019-02-09T20:04:30.095Z,998.16
2019-02-09T20:09:30.362Z,998.05
2019-02-09T20:14:29.207Z,998.15
2019-02-09T20:19:29.594Z,998.16
2019-02-09T20:24:29.270Z,998.08
2019-02-09T20:29:29.169Z,997.95
2019-02-09T20:34:28.284Z,997.92
2019-02-09T20:39:27.247Z,997.85
2019-02-09T20:44:27.165Z,997.90
2019-02-09T20:49:27.063Z,997.99
2019-02-09T20:54:27.126Z,997.77
2019-02-09T20:59:26.406Z,997.80
2019-02-09T21:04:27.128Z,997.80
2019-02-09T21:09:27.122Z,997.73
2019-02-09T21:14:27.415Z,997.83
2019-02-09T21:19:27.187Z,997.67
2019-02-09T21:24:26.358Z,997.83
2019-02-09T21:29:26.130Z,997.80
2019-02-09T21:34:26.308Z,997.83
2019-02-09T21:39:25.075Z,997.70
2019-02-09T21:44:25.306Z,997.86
2019-02-09T21:49:24.457Z,997.88
2019-02-09T21:54:23.396Z,997.87
2019-02-09T21:59:24.151Z,997.90
2019-02-09T22:04:24.159Z,997.87
2019-02-09T22:09:24.764Z,997.70
2019-02-09T22:14:24.832Z,997.68
2019-02-09T22:19:24.791Z,997.70
2019-02-09T22:24:23.707Z,997.58
2019-02-09T22:29:24.727Z,997.60
2019-02-09T22:34:24.723Z,997.47
2019-02-09T22:39:24.740Z,997.52
2019-02-09T22:44:24.762Z,997.49
2019-02-09T22:49:24.715Z,997.36
2019-02-09T22:54:23.727Z,997.36
2019-02-09T22:59:22.753Z,997.25
2019-02-09T23:04:22.759Z,997.23
2019-02-09T23:09:23.719Z,997.10
2019-02-09T23:14:23.728Z,997.04
2019-02-09T23:19:22.721Z,996.99
2019-02-09T23:24:22.750Z,996.96
2019-02-09T23:29:21.850Z,996.81
2019-02-09T23:34:22.760Z,996.67
2019-02-09T23:39:22.758Z,996.62
2019-02-09T23:44:22.721Z,996.49
2019-02-09T23:49:23.731Z,996.54
2019-02-09T23:54:23.748Z,996.41
2019-02-09T23:59:24.759Z,996.36
